sensor_id;sensor_type;location;lat;lon;timestamp;pressure;altitude;pressure_sealevel;temperature;humidity
46846;BME280;33947;46.804;134.252;2023-04-22T00:00:58;100949.72;;;7.75;54.95
46846;BME280;33947;46.804;134.252;2023-04-22T00:04:03;100961.31;;;7.55;55.15
46846;BME280;33947;46.804;134.252;2023-04-22T00:07:09;100929.75;;;7.35;55.86
46846;BME280;33947;46.804;134.252;2023-04-22T00:10:23;100957.16;;;7.17;55.01
46846;BME280;33947;46.804;134.252;2023-04-22T00:13:29;100967.31;;;7.79;55.57
46846;BME280;33947;46.804;134.252;2023-04-22T00:16:33;100950.13;;;7.22;55.70
46846;BME280;33947;46.804;134.252;2023-04-22T00:19:38;100957.31;;;6.95;57.01
46846;BME280;33947;46.804;134.252;2023-04-22T00:22:43;100968.50;;;7.36;56.17
46846;BME280;33947;46.804;134.252;2023-04-22T00:25:48;100966.91;;;7.10;56.40
46846;BME280;33947;46.804;134.252;2023-04-22T00:28:52;100952.59;;;7.45;55.60
46846;BME280;33947;46.804;134.252;2023-04-22T00:31:57;100970.38;;;7.21;56.23
46846;BME280;33947;46.804;134.252;2023-04-22T00:35:01;100933.88;;;7.72;55.16
46846;BME280;33947;46.804;134.252;2023-04-22T00:38:06;100948.41;;;8.19;53.78
46846;BME280;33947;46.804;134.252;2023-04-22T00:41:11;100968.47;;;8.40;54.23
46846;BME280;33947;46.804;134.252;2023-04-22T00:44:16;100948.34;;;8.27;53.30
46846;BME280;33947;46.804;134.252;2023-04-22T00:47:21;100957.59;;;8.68;53.52
46846;BME280;33947;46.804;134.252;2023-04-22T00:50:29;100958.72;;;9.16;51.98
46846;BME280;33947;46.804;134.252;2023-04-22T00:53:34;100963.34;;;10.14;50.17
46846;BME280;33947;46.804;134.252;2023-04-22T00:56:39;100954.91;;;10.41;48.82
46846;BME280;33947;46.804;134.252;2023-04-22T00:59:43;100975.41;;;10.31;50.04
46846;BME280;33947;46.804;134.252;2023-04-22T01:02:48;100975.34;;;10.34;49.30
46846;BME280;33947;46.804;134.252;2023-04-22T01:05:53;100970.72;;;10.90;48.78
46846;BME280;33947;46.804;134.252;2023-04-22T01:08:57;100963.66;;;10.89;47.30
46846;BME280;33947;46.804;134.252;2023-04-22T01:12:02;100959.81;;;11.04;48.25
46846;BME280;33947;46.804;134.252;2023-04-22T01:15:07;100956.66;;;10.86;47.70
46846;BME280;33947;46.804;134.252;2023-04-22T01:18:12;100964.56;;;9.95;49.65
46846;BME280;33947;46.804;134.252;2023-04-22T01:21:17;100947.34;;;9.67;50.39
46846;BME280;33947;46.804;134.252;2023-04-22T01:24:22;100952.63;;;10.66;49.29
46846;BME280;33947;46.804;134.252;2023-04-22T01:27:26;100954.75;;;12.05;45.76
46846;BME280;33947;46.804;134.252;2023-04-22T01:30:31;100951.16;;;10.94;47.08
46846;BME280;33947;46.804;134.252;2023-04-22T01:33:37;100963.88;;;11.93;45.98
46846;BME280;33947;46.804;134.252;2023-04-22T01:36:43;100954.28;;;10.72;46.74
46846;BME280;33947;46.804;134.252;2023-04-22T01:39:48;100960.19;;;10.42;47.56
46846;BME280;33947;46.804;134.252;2023-04-22T01:42:53;100951.69;;;10.22;46.71
46846;BME280;33947;46.804;134.252;2023-04-22T01:46:00;100966.59;;;9.79;49.75
46846;BME280;33947;46.804;134.252;2023-04-22T01:49:05;100954.34;;;9.72;49.47
46846;BME280;33947;46.804;134.252;2023-04-22T01:52:10;100948.56;;;9.98;48.91
46846;BME280;33947;46.804;134.252;2023-04-22T01:55:14;100951.50;;;10.33;48.56
46846;BME280;33947;46.804;134.252;2023-04-22T01:58:19;100922.59;;;11.04;47.05
46846;BME280;33947;46.804;134.252;2023-04-22T02:01:24;100948.50;;;11.71;45.09
46846;BME280;33947;46.804;134.252;2023-04-22T02:04:28;100911.00;;;10.67;44.57
46846;BME280;33947;46.804;134.252;2023-04-22T02:07:33;100940.09;;;10.73;46.41
46846;BME280;33947;46.804;134.252;2023-04-22T02:10:38;100944.50;;;10.28;45.83
46846;BME280;33947;46.804;134.252;2023-04-22T02:13:43;100950.50;;;10.84;46.42
46846;BME280;33947;46.804;134.252;2023-04-22T02:16:49;100914.53;;;10.22;46.60
46846;BME280;33947;46.804;134.252;2023-04-22T02:19:54;100938.06;;;9.92;46.55
46846;BME280;33947;46.804;134.252;2023-04-22T02:22:58;100924.78;;;10.42;47.24
46846;BME280;33947;46.804;134.252;2023-04-22T02:26:03;100918.91;;;12.50;44.54
46846;BME280;33947;46.804;134.252;2023-04-22T02:29:09;100918.78;;;13.41;41.50
46846;BME280;33947;46.804;134.252;2023-04-22T02:32:14;100878.53;;;12.92;41.01
46846;BME280;33947;46.804;134.252;2023-04-22T02:35:20;100923.47;;;11.42;42.80
46846;BME280;33947;46.804;134.252;2023-04-22T02:38:25;100929.34;;;11.17;42.63
46846;BME280;33947;46.804;134.252;2023-04-22T02:41:29;100915.38;;;10.24;44.57
46846;BME280;33947;46.804;134.252;2023-04-22T02:44:34;100905.84;;;10.12;44.85
46846;BME280;33947;46.804;134.252;2023-04-22T02:47:38;100924.97;;;10.31;44.55
46846;BME280;33947;46.804;134.252;2023-04-22T02:50:43;100904.06;;;11.73;42.32
46846;BME280;33947;46.804;134.252;2023-04-22T02:53:47;100906.94;;;12.63;40.40
46846;BME280;33947;46.804;134.252;2023-04-22T02:56:52;100911.09;;;13.86;38.92
46846;BME280;33947;46.804;134.252;2023-04-22T02:59:57;100898.81;;;12.06;40.56
46846;BME280;33947;46.804;134.252;2023-04-22T03:03:02;100916.13;;;11.86;40.03
46846;BME280;33947;46.804;134.252;2023-04-22T03:06:08;100901.38;;;11.00;41.30
46846;BME280;33947;46.804;134.252;2023-04-22T03:09:12;100897.06;;;10.95;42.24
46846;BME280;33947;46.804;134.252;2023-04-22T03:12:17;100919.28;;;11.68;41.44
46846;BME280;33947;46.804;134.252;2023-04-22T03:15:21;100889.00;;;10.60;43.57
46846;BME280;33947;46.804;134.252;2023-04-22T03:18:25;100903.53;;;10.42;44.83
46846;BME280;33947;46.804;134.252;2023-04-22T03:21:30;100897.88;;;10.59;44.00
46846;BME280;33947;46.804;134.252;2023-04-22T03:24:36;100895.16;;;11.02;42.49
46846;BME280;33947;46.804;134.252;2023-04-22T03:27:43;100878.75;;;11.91;42.75
46846;BME280;33947;46.804;134.252;2023-04-22T03:30:48;100889.84;;;11.74;41.94
46846;BME280;33947;46.804;134.252;2023-04-22T03:33:53;100893.69;;;11.27;42.23
46846;BME280;33947;46.804;134.252;2023-04-22T03:37:03;100864.28;;;11.34;42.10
46846;BME280;33947;46.804;134.252;2023-04-22T03:40:09;100886.19;;;11.43;40.73
46846;BME280;33947;46.804;134.252;2023-04-22T03:43:16;100884.56;;;11.38;40.99
46846;BME280;33947;46.804;134.252;2023-04-22T03:46:31;100882.06;;;11.30;40.61
46846;BME280;33947;46.804;134.252;2023-04-22T03:49:55;100871.41;;;10.94;41.70
46846;BME280;33947;46.804;134.252;2023-04-22T03:53:00;100861.06;;;10.81;41.66
46846;BME280;33947;46.804;134.252;2023-04-22T03:56:04;100884.56;;;10.61;42.83
46846;BME280;33947;46.804;134.252;2023-04-22T03:59:13;100883.81;;;10.08;44.32
46846;BME280;33947;46.804;134.252;2023-04-22T04:02:17;100889.91;;;9.65;45.67
46846;BME280;33947;46.804;134.252;2023-04-22T04:05:22;100899.09;;;9.44;46.09
46846;BME280;33947;46.804;134.252;2023-04-22T04:08:27;100892.88;;;9.46;45.56
46846;BME280;33947;46.804;134.252;2023-04-22T04:11:34;100886.78;;;9.41;44.38
46846;BME280;33947;46.804;134.252;2023-04-22T04:14:39;100883.38;;;9.33;42.77
46846;BME280;33947;46.804;134.252;2023-04-22T04:17:46;100894.78;;;9.38;42.00
46846;BME280;33947;46.804;134.252;2023-04-22T04:20:54;100870.88;;;9.91;41.81
46846;BME280;33947;46.804;134.252;2023-04-22T04:24:02;100885.06;;;10.34;40.23
46846;BME280;33947;46.804;134.252;2023-04-22T04:27:10;100888.16;;;10.12;40.18
46846;BME280;33947;46.804;134.252;2023-04-22T04:30:22;100854.00;;;9.94;39.91
46846;BME280;33947;46.804;134.252;2023-04-22T04:33:30;100863.81;;;10.34;40.15
46846;BME280;33947;46.804;134.252;2023-04-22T04:36:35;100835.91;;;9.69;39.59
46846;BME280;33947;46.804;134.252;2023-04-22T04:39:49;100871.03;;;9.82;39.24
46846;BME280;33947;46.804;134.252;2023-04-22T04:42:57;100866.56;;;9.84;39.71
46846;BME280;33947;46.804;134.252;2023-04-22T04:46:08;100869.59;;;10.11;37.98
46846;BME280;33947;46.804;134.252;2023-04-22T04:49:13;100860.25;;;9.91;37.38
46846;BME280;33947;46.804;134.252;2023-04-22T04:52:27;100849.97;;;10.62;37.49
46846;BME280;33947;46.804;134.252;2023-04-22T04:55:32;100854.22;;;10.71;36.74
46846;BME280;33947;46.804;134.252;2023-04-22T04:58:42;100870.03;;;10.76;35.61
46846;BME280;33947;46.804;134.252;2023-04-22T05:02:01;100860.59;;;10.64;36.43
46846;BME280;33947;46.804;134.252;2023-04-22T05:05:09;100868.69;;;10.97;36.30
46846;BME280;33947;46.804;134.252;2023-04-22T05:08:17;100868.91;;;11.25;34.75
46846;BME280;33947;46.804;134.252;2023-04-22T05:11:24;100852.13;;;11.23;35.18
46846;BME280;33947;46.804;134.252;2023-04-22T05:14:30;100855.41;;;11.33;34.78
46846;BME280;33947;46.804;134.252;2023-04-22T05:17:35;100829.84;;;10.91;33.83
46846;BME280;33947;46.804;134.252;2023-04-22T05:20:39;100860.06;;;10.87;33.50
46846;BME280;33947;46.804;134.252;2023-04-22T05:23:45;100871.16;;;11.05;32.33
46846;BME280;33947;46.804;134.252;2023-04-22T05:26:51;100859.75;;;11.01;32.35
46846;BME280;33947;46.804;134.252;2023-04-22T05:29:56;100870.84;;;11.17;32.61
46846;BME280;33947;46.804;134.252;2023-04-22T05:33:08;100876.66;;;11.69;32.28
46846;BME280;33947;46.804;134.252;2023-04-22T05:36:15;100872.88;;;11.78;31.27
46846;BME280;33947;46.804;134.252;2023-04-22T05:39:21;100872.06;;;11.04;31.13
46846;BME280;33947;46.804;134.252;2023-04-22T05:42:26;100867.91;;;10.92;32.07
46846;BME280;33947;46.804;134.252;2023-04-22T05:45:31;100857.34;;;10.90;32.37
46846;BME280;33947;46.804;134.252;2023-04-22T05:48:38;100878.06;;;11.12;32.40
46846;BME280;33947;46.804;134.252;2023-04-22T05:51:52;100886.47;;;10.54;32.54
46846;BME280;33947;46.804;134.252;2023-04-22T05:55:02;100876.91;;;10.45;32.04
46846;BME280;33947;46.804;134.252;2023-04-22T05:58:07;100869.50;;;10.60;32.63
46846;BME280;33947;46.804;134.252;2023-04-22T06:01:22;100870.56;;;10.92;32.98
46846;BME280;33947;46.804;134.252;2023-04-22T06:04:40;100883.97;;;10.46;31.87
46846;BME280;33947;46.804;134.252;2023-04-22T06:07:46;100847.44;;;9.68;34.65
46846;BME280;33947;46.804;134.252;2023-04-22T06:10:50;100890.59;;;9.76;35.57
46846;BME280;33947;46.804;134.252;2023-04-22T06:13:55;100911.16;;;9.62;37.11
46846;BME280;33947;46.804;134.252;2023-04-22T06:17:00;100921.94;;;9.54;36.74
46846;BME280;33947;46.804;134.252;2023-04-22T06:20:05;100922.91;;;9.48;37.17
46846;BME280;33947;46.804;134.252;2023-04-22T06:23:10;100909.53;;;9.54;37.45
46846;BME280;33947;46.804;134.252;2023-04-22T06:26:14;100929.66;;;9.66;36.90
46846;BME280;33947;46.804;134.252;2023-04-22T06:29:22;100915.38;;;9.20;37.36
46846;BME280;33947;46.804;134.252;2023-04-22T06:32:28;100915.22;;;9.31;37.65
46846;BME280;33947;46.804;134.252;2023-04-22T06:35:32;100913.13;;;9.52;37.85
46846;BME280;33947;46.804;134.252;2023-04-22T06:38:37;100901.16;;;9.26;37.32
46846;BME280;33947;46.804;134.252;2023-04-22T06:42:13;100915.72;;;9.55;36.97
46846;BME280;33947;46.804;134.252;2023-04-22T06:45:44;100912.34;;;9.44;36.39
46846;BME280;33947;46.804;134.252;2023-04-22T06:49:06;100915.00;;;9.45;36.82
46846;BME280;33947;46.804;134.252;2023-04-22T06:52:37;100910.38;;;9.58;37.23
46846;BME280;33947;46.804;134.252;2023-04-22T06:55:41;100907.13;;;9.39;37.16
46846;BME280;33947;46.804;134.252;2023-04-22T06:58:46;100907.19;;;9.34;37.71
46846;BME280;33947;46.804;134.252;2023-04-22T07:01:51;100909.59;;;9.51;36.96
46846;BME280;33947;46.804;134.252;2023-04-22T07:04:56;100908.50;;;9.62;36.80
46846;BME280;33947;46.804;134.252;2023-04-22T07:08:01;100913.34;;;9.38;36.21
46846;BME280;33947;46.804;134.252;2023-04-22T07:11:06;100917.13;;;9.21;36.03
46846;BME280;33947;46.804;134.252;2023-04-22T07:14:32;100896.53;;;9.37;36.92
46846;BME280;33947;46.804;134.252;2023-04-22T07:17:36;100920.97;;;9.58;36.45
46846;BME280;33947;46.804;134.252;2023-04-22T07:20:41;100915.25;;;9.26;36.27
46846;BME280;33947;46.804;134.252;2023-04-22T07:23:45;100928.53;;;9.80;36.24
46846;BME280;33947;46.804;134.252;2023-04-22T07:26:50;100927.56;;;9.85;35.95
46846;BME280;33947;46.804;134.252;2023-04-22T07:29:56;100874.91;;;9.10;35.17
46846;BME280;33947;46.804;134.252;2023-04-22T07:33:03;100934.31;;;9.53;35.60
46846;BME280;33947;46.804;134.252;2023-04-22T07:36:07;100918.34;;;9.56;35.38
46846;BME280;33947;46.804;134.252;2023-04-22T07:39:12;100899.50;;;9.19;35.65
46846;BME280;33947;46.804;134.252;2023-04-22T07:42:17;100920.59;;;9.25;35.84
46846;BME280;33947;46.804;134.252;2023-04-22T07:45:21;100897.63;;;8.63;36.73
46846;BME280;33947;46.804;134.252;2023-04-22T07:48:26;100923.88;;;8.81;37.30
46846;BME280;33947;46.804;134.252;2023-04-22T07:51:30;100922.34;;;8.62;37.86
46846;BME280;33947;46.804;134.252;2023-04-22T07:54:35;100919.34;;;8.91;38.15
46846;BME280;33947;46.804;134.252;2023-04-22T07:57:39;100919.91;;;9.14;37.92
46846;BME280;33947;46.804;134.252;2023-04-22T08:00:44;100929.91;;;9.52;37.89
46846;BME280;33947;46.804;134.252;2023-04-22T08:03:49;100901.16;;;9.26;37.44
46846;BME280;33947;46.804;134.252;2023-04-22T08:06:54;100919.59;;;9.34;37.48
46846;BME280;33947;46.804;134.252;2023-04-22T08:10:00;100928.19;;;9.50;37.53
46846;BME280;33947;46.804;134.252;2023-04-22T08:13:05;100925.38;;;9.59;36.87
46846;BME280;33947;46.804;134.252;2023-04-22T08:16:09;100922.31;;;9.31;37.35
46846;BME280;33947;46.804;134.252;2023-04-22T08:19:14;100918.69;;;9.35;37.04
46846;BME280;33947;46.804;134.252;2023-04-22T08:22:18;100915.63;;;9.03;36.87
46846;BME280;33947;46.804;134.252;2023-04-22T08:25:22;100896.50;;;8.81;37.30
46846;BME280;33947;46.804;134.252;2023-04-22T08:28:27;100907.91;;;8.86;37.39
46846;BME280;33947;46.804;134.252;2023-04-22T08:31:33;100881.00;;;8.53;37.16
46846;BME280;33947;46.804;134.252;2023-04-22T08:34:38;100879.44;;;8.33;37.37
46846;BME280;33947;46.804;134.252;2023-04-22T08:37:43;100908.47;;;8.39;36.85
46846;BME280;33947;46.804;134.252;2023-04-22T08:40:48;100927.88;;;8.43;37.64
46846;BME280;33947;46.804;134.252;2023-04-22T08:43:52;100887.69;;;8.07;37.97
46846;BME280;33947;46.804;134.252;2023-04-22T08:46:57;100922.88;;;8.15;38.28
46846;BME280;33947;46.804;134.252;2023-04-22T08:50:05;100921.31;;;7.92;37.78
46846;BME280;33947;46.804;134.252;2023-04-22T08:53:13;100926.50;;;8.05;38.68
46846;BME280;33947;46.804;134.252;2023-04-22T08:56:17;100919.44;;;8.05;38.96
46846;BME280;33947;46.804;134.252;2023-04-22T08:59:22;100931.69;;;8.13;38.77
46846;BME280;33947;46.804;134.252;2023-04-22T09:02:26;100926.47;;;8.08;38.78
46846;BME280;33947;46.804;134.252;2023-04-22T09:05:33;100930.84;;;8.12;38.61
46846;BME280;33947;46.804;134.252;2023-04-22T09:08:39;100868.41;;;7.92;38.98
46846;BME280;33947;46.804;134.252;2023-04-22T09:11:43;100923.75;;;8.14;38.75
46846;BME280;33947;46.804;134.252;2023-04-22T09:14:48;100936.03;;;8.23;38.60
46846;BME280;33947;46.804;134.252;2023-04-22T09:17:53;100944.03;;;8.14;39.12
46846;BME280;33947;46.804;134.252;2023-04-22T09:20:59;100875.69;;;7.70;39.60
46846;BME280;33947;46.804;134.252;2023-04-22T09:24:06;100944.06;;;8.10;40.11
46846;BME280;33947;46.804;134.252;2023-04-22T09:27:13;100961.97;;;7.85;40.24
46846;BME280;33947;46.804;134.252;2023-04-22T09:30:34;100947.19;;;7.62;41.11
46846;BME280;33947;46.804;134.252;2023-04-22T09:33:47;100955.91;;;7.72;41.20
46846;BME280;33947;46.804;134.252;2023-04-22T09:36:53;100958.78;;;7.43;41.56
46846;BME280;33947;46.804;134.252;2023-04-22T09:39:57;100966.66;;;7.49;41.78
46846;BME280;33947;46.804;134.252;2023-04-22T09:43:04;100951.88;;;7.17;42.67
46846;BME280;33947;46.804;134.252;2023-04-22T09:46:09;100969.53;;;7.16;43.40
46846;BME280;33947;46.804;134.252;2023-04-22T09:49:15;100968.72;;;6.99;44.18
46846;BME280;33947;46.804;134.252;2023-04-22T09:52:22;100973.91;;;7.17;43.42
46846;BME280;33947;46.804;134.252;2023-04-22T09:55:30;100974.06;;;6.86;43.81
46846;BME280;33947;46.804;134.252;2023-04-22T09:58:39;100978.53;;;6.78;44.65
46846;BME280;33947;46.804;134.252;2023-04-22T10:01:46;100978.53;;;6.73;44.85
46846;BME280;33947;46.804;134.252;2023-04-22T10:04:50;100980.25;;;6.80;44.75
46846;BME280;33947;46.804;134.252;2023-04-22T10:07:55;100971.53;;;6.58;45.47
46846;BME280;33947;46.804;134.252;2023-04-22T10:11:00;100982.09;;;6.60;45.26
46846;BME280;33947;46.804;134.252;2023-04-22T10:14:05;100990.84;;;6.79;44.60
46846;BME280;33947;46.804;134.252;2023-04-22T10:17:11;100997.88;;;6.80;45.06
46846;BME280;33947;46.804;134.252;2023-04-22T10:20:18;100999.53;;;7.04;44.33
46846;BME280;33947;46.804;134.252;2023-04-22T10:23:24;100989.03;;;6.89;44.95
46846;BME280;33947;46.804;134.252;2023-04-22T10:26:48;101003.28;;;6.36;47.56
46846;BME280;33947;46.804;134.252;2023-04-22T10:29:55;100996.25;;;6.34;46.85
46846;BME280;33947;46.804;134.252;2023-04-22T10:40:10;100998.03;;;6.21;47.30
46846;BME280;33947;46.804;134.252;2023-04-22T10:43:19;100983.97;;;6.10;47.12
46846;BME280;33947;46.804;134.252;2023-04-22T10:49:43;101000.66;;;6.30;46.89
46846;BME280;33947;46.804;134.252;2023-04-22T10:52:49;101005.06;;;6.31;46.48
46846;BME280;33947;46.804;134.252;2023-04-22T10:55:53;101016.50;;;6.26;46.98
46846;BME280;33947;46.804;134.252;2023-04-22T10:58:59;101016.50;;;6.16;47.36
46846;BME280;33947;46.804;134.252;2023-04-22T11:02:19;101012.09;;;6.17;47.03
46846;BME280;33947;46.804;134.252;2023-04-22T11:05:25;101008.56;;;6.18;46.99
46846;BME280;33947;46.804;134.252;2023-04-22T11:08:30;101010.34;;;6.10;46.95
46846;BME280;33947;46.804;134.252;2023-04-22T11:11:35;101011.22;;;6.04;47.60
46846;BME280;33947;46.804;134.252;2023-04-22T11:14:40;101006.81;;;5.93;47.13
46846;BME280;33947;46.804;134.252;2023-04-22T11:17:47;101015.63;;;6.02;46.81
46846;BME280;33947;46.804;134.252;2023-04-22T11:20:52;101017.38;;;6.07;46.72
46846;BME280;33947;46.804;134.252;2023-04-22T11:23:58;101018.28;;;6.03;46.76
46846;BME280;33947;46.804;134.252;2023-04-22T11:27:09;100989.22;;;5.72;47.41
46846;BME280;33947;46.804;134.252;2023-04-22T11:33:19;101027.88;;;5.86;47.61
46846;BME280;33947;46.804;134.252;2023-04-22T11:36:23;101048.13;;;5.98;47.41
46846;BME280;33947;46.804;134.252;2023-04-22T11:39:35;101049.91;;;6.10;46.29
46846;BME280;33947;46.804;134.252;2023-04-22T11:43:00;101029.66;;;5.87;46.25
46846;BME280;33947;46.804;134.252;2023-04-22T11:46:05;101059.59;;;6.18;45.79
46846;BME280;33947;46.804;134.252;2023-04-22T11:49:16;101055.19;;;6.06;46.10
46846;BME280;33947;46.804;134.252;2023-04-22T11:52:20;101057.81;;;6.23;45.66
46846;BME280;33947;46.804;134.252;2023-04-22T11:55:32;101049.03;;;6.35;45.37
46846;BME280;33947;46.804;134.252;2023-04-22T11:58:38;101045.50;;;5.93;46.28
46846;BME280;33947;46.804;134.252;2023-04-22T12:01:46;101041.13;;;6.07;46.34
46846;BME280;33947;46.804;134.252;2023-04-22T12:04:50;101036.72;;;6.02;46.52
46846;BME280;33947;46.804;134.252;2023-04-22T12:07:56;101041.97;;;5.86;46.56
46846;BME280;33947;46.804;134.252;2023-04-22T12:11:03;101037.56;;;5.87;46.75
46846;BME280;33947;46.804;134.252;2023-04-22T12:14:07;100999.78;;;5.72;46.46
46846;BME280;33947;46.804;134.252;2023-04-22T12:17:12;101041.97;;;5.99;46.27
46846;BME280;33947;46.804;134.252;2023-04-22T12:20:18;101040.22;;;5.99;46.28
46846;BME280;33947;46.804;134.252;2023-04-22T12:23:24;101045.50;;;5.96;46.18
46846;BME280;33947;46.804;134.252;2023-04-22T12:26:28;101045.47;;;5.85;46.73
46846;BME280;33947;46.804;134.252;2023-04-22T12:29:33;101033.16;;;5.62;46.98
46846;BME280;33947;46.804;134.252;2023-04-22T12:32:38;101044.59;;;5.78;47.05
46846;BME280;33947;46.804;134.252;2023-04-22T12:35:42;101042.84;;;5.84;46.71
46846;BME280;33947;46.804;134.252;2023-04-22T12:38:49;101042.84;;;5.82;46.63
46846;BME280;33947;46.804;134.252;2023-04-22T12:41:54;101012.06;;;5.70;46.64
46846;BME280;33947;46.804;134.252;2023-04-22T12:45:01;101041.97;;;5.77;46.96
46846;BME280;33947;46.804;134.252;2023-04-22T12:48:08;101040.16;;;5.57;47.50
46846;BME280;33947;46.804;134.252;2023-04-22T12:51:13;101030.47;;;5.42;48.18
46846;BME280;33947;46.804;134.252;2023-04-22T12:54:19;101030.47;;;5.39;47.86
46846;BME280;33947;46.804;134.252;2023-04-22T12:57:24;101038.38;;;5.31;47.99
46846;BME280;33947;46.804;134.252;2023-04-22T13:00:29;101033.97;;;5.22;48.45
46846;BME280;33947;46.804;134.252;2023-04-22T13:03:34;101022.50;;;5.10;48.77
46846;BME280;33947;46.804;134.252;2023-04-22T13:06:38;101033.88;;;5.01;48.49
46846;BME280;33947;46.804;134.252;2023-04-22T13:09:46;101037.38;;;4.95;48.51
46846;BME280;33947;46.804;134.252;2023-04-22T13:12:51;101030.31;;;4.92;48.43
46846;BME280;33947;46.804;134.252;2023-04-22T13:16:02;101016.22;;;4.80;49.26
46846;BME280;33947;46.804;134.252;2023-04-22T13:19:06;101017.03;;;4.63;49.40
46846;BME280;33947;46.804;134.252;2023-04-22T13:22:10;101018.81;;;4.67;48.94
46846;BME280;33947;46.804;134.252;2023-04-22T13:25:14;101025.88;;;4.84;49.03
46846;BME280;33947;46.804;134.252;2023-04-22T13:28:19;101021.50;;;4.83;48.55
46846;BME280;33947;46.804;134.252;2023-04-22T13:31:23;100992.38;;;4.47;49.09
46846;BME280;33947;46.804;134.252;2023-04-22T13:34:28;101025.78;;;4.60;49.52
46846;BME280;33947;46.804;134.252;2023-04-22T13:37:33;101007.19;;;4.32;49.53
46846;BME280;33947;46.804;134.252;2023-04-22T13:40:37;100988.75;;;4.25;50.30
46846;BME280;33947;46.804;134.252;2023-04-22T13:43:41;101017.69;;;4.26;50.87
46846;BME280;33947;46.804;134.252;2023-04-22T13:46:45;101020.25;;;4.17;50.44
46846;BME280;33947;46.804;134.252;2023-04-22T13:49:50;101006.13;;;3.99;51.61
46846;BME280;33947;46.804;134.252;2023-04-22T13:52:57;101021.84;;;3.98;52.01
46846;BME280;33947;46.804;134.252;2023-04-22T13:56:01;101021.03;;;4.05;52.35
46846;BME280;33947;46.804;134.252;2023-04-22T13:59:06;100992.66;;;3.64;53.39
46846;BME280;33947;46.804;134.252;2023-04-22T14:02:11;101010.25;;;3.74;53.79
46846;BME280;33947;46.804;134.252;2023-04-22T14:05:15;101019.19;;;3.93;53.51
46846;BME280;33947;46.804;134.252;2023-04-22T14:08:20;100960.22;;;3.58;53.14
46846;BME280;33947;46.804;134.252;2023-04-22T14:11:24;101010.38;;;3.88;53.12
46846;BME280;33947;46.804;134.252;2023-04-22T14:14:29;101019.13;;;3.82;53.32
46846;BME280;33947;46.804;134.252;2023-04-22T14:17:33;101020.97;;;3.96;53.23
46846;BME280;33947;46.804;134.252;2023-04-22T14:20:37;101013.84;;;3.79;54.12
46846;BME280;33947;46.804;134.252;2023-04-22T14:23:42;101018.22;;;3.82;54.02
46846;BME280;33947;46.804;134.252;2023-04-22T14:26:46;101011.16;;;3.74;53.32
46846;BME280;33947;46.804;134.252;2023-04-22T14:29:51;101016.34;;;3.65;54.09
46846;BME280;33947;46.804;134.252;2023-04-22T14:32:56;101014.53;;;3.62;54.38
46846;BME280;33947;46.804;134.252;2023-04-22T14:36:00;101015.28;;;3.47;54.60
46846;BME280;33947;46.804;134.252;2023-04-22T14:39:04;101015.34;;;3.54;54.53
46846;BME280;33947;46.804;134.252;2023-04-22T14:42:09;101008.31;;;3.53;53.92
46846;BME280;33947;46.804;134.252;2023-04-22T14:45:38;101004.69;;;3.38;54.69
46846;BME280;33947;46.804;134.252;2023-04-22T14:48:43;100987.13;;;3.32;54.41
46846;BME280;33947;46.804;134.252;2023-04-22T14:51:47;100991.50;;;3.33;54.02
46846;BME280;33947;46.804;134.252;2023-04-22T14:54:52;101018.94;;;3.62;53.18
46846;BME280;33947;46.804;134.252;2023-04-22T14:57:56;101024.13;;;3.59;53.29
46846;BME280;33947;46.804;134.252;2023-04-22T15:01:01;100994.25;;;3.44;53.81
46846;BME280;33947;46.804;134.252;2023-04-22T15:04:08;101017.13;;;3.58;53.07
46846;BME280;33947;46.804;134.252;2023-04-22T15:07:15;100992.47;;;3.43;53.05
46846;BME280;33947;46.804;134.252;2023-04-22T15:10:20;100993.44;;;3.52;53.53
46846;BME280;33947;46.804;134.252;2023-04-22T15:13:24;101019.00;;;3.73;52.56
46846;BME280;33947;46.804;134.252;2023-04-22T15:16:28;100952.09;;;3.30;53.15
46846;BME280;33947;46.804;134.252;2023-04-22T15:19:34;101008.34;;;3.56;52.87
46846;BME280;33947;46.804;134.252;2023-04-22T15:22:39;101014.31;;;3.41;53.95
46846;BME280;33947;46.804;134.252;2023-04-22T15:25:46;101000.19;;;3.25;53.50
46846;BME280;33947;46.804;134.252;2023-04-22T15:28:50;101011.63;;;3.31;53.51
46846;BME280;33947;46.804;134.252;2023-04-22T15:31:55;101023.72;;;3.18;54.29
46846;BME280;33947;46.804;134.252;2023-04-22T15:35:00;100997.28;;;3.01;54.60
46846;BME280;33947;46.804;134.252;2023-04-22T15:38:05;100970.94;;;2.91;53.89
46846;BME280;33947;46.804;134.252;2023-04-22T15:41:09;101020.16;;;3.12;53.77
46846;BME280;33947;46.804;134.252;2023-04-22T15:44:14;101002.56;;;3.03;54.99
46846;BME280;33947;46.804;134.252;2023-04-22T15:47:18;101015.09;;;3.29;53.99
46846;BME280;33947;46.804;134.252;2023-04-22T15:50:23;101030.69;;;3.16;53.68
46846;BME280;33947;46.804;134.252;2023-04-22T15:53:28;101000.72;;;2.97;54.19
46846;BME280;33947;46.804;134.252;2023-04-22T15:56:35;100961.25;;;2.86;53.72
46846;BME280;33947;46.804;134.252;2023-04-22T15:59:39;101009.66;;;3.12;54.59
46846;BME280;33947;46.804;134.252;2023-04-22T16:02:44;101023.75;;;3.22;53.78
46846;BME280;33947;46.804;134.252;2023-04-22T16:05:57;100998.34;;;3.21;54.13
46846;BME280;33947;46.804;134.252;2023-04-22T16:09:01;101019.75;;;3.56;53.02
46846;BME280;33947;46.804;134.252;2023-04-22T16:12:06;101024.91;;;3.47;53.57